Hovedside
METAR-TAF:

METAR-TAF

Lufthavner :

San Juan, Puerto Rico, USA

breddegrad: 18-27-24N, lengdegrad: 066-05-54W, høyde over havet: 3 m

Gjeldene værobservasjon

Denne rapporten ble laget for 36 minutter siden, klokken 14:50 UTC
Vind 10 kt fra Øst
Temperatur 30°C
Luftfuktighet 79%
Trykk 1017 hPa
Sikt: 12.9 km
Spredte skyer i en høyde av 2500 ft
Spredte skyer i en høyde av 5000 ft
dis,

METAR: TJIG 191450Z 08010KT 8SM HZ SCT025 SCT050 30/26 A3002

Tid: 11:26 (15:26 UTC)


TAF: fraværende

Værobservasjoner og værvarsel for over 4000 flyplasser (METAR- og TAF-rapporter).

Tilgjengelige stasjoner er representert av de røde og gule prikkene på kartet.

Hold musepekeren over prikken for å se navnet på stasjonen.

Klikk så for å se værobservasjoner og -varsler.

For å forandre kartet kan du klikke på den grønne knappen med svart kryss for å zoome inn, på den grønne knappen med strek for å zoome ut, eller på de grønne pilene for å se tilstøtende kart.


METAR-TAF: